sensor_id;sensor_type;location;lat;lon;timestamp;P1;durP1;ratioP1;P2;durP2;ratioP2
14474;SDS011;7323;50.848;4.334;2023-01-24T00:00:37;37.27;;;26.70;;
14474;SDS011;7323;50.848;4.334;2023-01-24T00:03:03;37.37;;;26.50;;
14474;SDS011;7323;50.848;4.334;2023-01-24T00:05:29;33.27;;;25.33;;
14474;SDS011;7323;50.848;4.334;2023-01-24T00:07:57;34.83;;;24.47;;
14474;SDS011;7323;50.848;4.334;2023-01-24T00:10:23;35.80;;;27.03;;
14474;SDS011;7323;50.848;4.334;2023-01-24T00:12:50;35.37;;;26.93;;
14474;SDS011;7323;50.848;4.334;2023-01-24T00:15:17;35.73;;;25.70;;
14474;SDS011;7323;50.848;4.334;2023-01-24T00:17:44;35.50;;;27.00;;
14474;SDS011;7323;50.848;4.334;2023-01-24T00:20:10;38.17;;;28.17;;
14474;SDS011;7323;50.848;4.334;2023-01-24T00:22:37;33.23;;;24.07;;
14474;SDS011;7323;50.848;4.334;2023-01-24T00:25:02;30.23;;;23.10;;
14474;SDS011;7323;50.848;4.334;2023-01-24T00:27:28;31.33;;;20.23;;
14474;SDS011;7323;50.848;4.334;2023-01-24T00:29:56;31.50;;;24.80;;
14474;SDS011;7323;50.848;4.334;2023-01-24T00:32:22;36.77;;;24.93;;
14474;SDS011;7323;50.848;4.334;2023-01-24T00:34:48;34.60;;;25.53;;
14474;SDS011;7323;50.848;4.334;2023-01-24T00:37:13;36.77;;;26.27;;
14474;SDS011;7323;50.848;4.334;2023-01-24T00:39:39;37.47;;;27.07;;
14474;SDS011;7323;50.848;4.334;2023-01-24T00:42:05;37.63;;;28.33;;
14474;SDS011;7323;50.848;4.334;2023-01-24T00:44:30;34.90;;;24.83;;
14474;SDS011;7323;50.848;4.334;2023-01-24T00:46:56;35.87;;;26.37;;
14474;SDS011;7323;50.848;4.334;2023-01-24T00:49:22;36.13;;;26.63;;
14474;SDS011;7323;50.848;4.334;2023-01-24T00:51:47;34.73;;;25.63;;
14474;SDS011;7323;50.848;4.334;2023-01-24T00:54:13;32.27;;;23.17;;
14474;SDS011;7323;50.848;4.334;2023-01-24T00:56:38;31.80;;;22.53;;
14474;SDS011;7323;50.848;4.334;2023-01-24T00:59:05;30.57;;;22.60;;
14474;SDS011;7323;50.848;4.334;2023-01-24T01:01:33;30.47;;;23.33;;
14474;SDS011;7323;50.848;4.334;2023-01-24T01:04:01;37.20;;;26.70;;
14474;SDS011;7323;50.848;4.334;2023-01-24T01:06:29;34.43;;;24.97;;
14474;SDS011;7323;50.848;4.334;2023-01-24T01:08:58;36.03;;;25.87;;
14474;SDS011;7323;50.848;4.334;2023-01-24T01:11:23;34.33;;;25.20;;
14474;SDS011;7323;50.848;4.334;2023-01-24T01:13:53;37.87;;;26.63;;
14474;SDS011;7323;50.848;4.334;2023-01-24T01:16:22;33.90;;;25.13;;
14474;SDS011;7323;50.848;4.334;2023-01-24T01:18:49;33.80;;;24.10;;
14474;SDS011;7323;50.848;4.334;2023-01-24T01:21:19;30.30;;;20.67;;
14474;SDS011;7323;50.848;4.334;2023-01-24T01:23:46;35.20;;;25.17;;
14474;SDS011;7323;50.848;4.334;2023-01-24T01:26:17;36.30;;;22.43;;
14474;SDS011;7323;50.848;4.334;2023-01-24T01:28:45;31.40;;;20.93;;
14474;SDS011;7323;50.848;4.334;2023-01-24T01:31:12;35.70;;;22.87;;
14474;SDS011;7323;50.848;4.334;2023-01-24T01:33:38;35.93;;;25.97;;
14474;SDS011;7323;50.848;4.334;2023-01-24T01:36:03;37.77;;;26.80;;
14474;SDS011;7323;50.848;4.334;2023-01-24T01:38:31;34.77;;;24.20;;
14474;SDS011;7323;50.848;4.334;2023-01-24T01:40:57;34.43;;;23.83;;
14474;SDS011;7323;50.848;4.334;2023-01-24T01:43:23;31.27;;;21.90;;
14474;SDS011;7323;50.848;4.334;2023-01-24T01:45:51;35.33;;;24.57;;
14474;SDS011;7323;50.848;4.334;2023-01-24T01:48:29;30.57;;;22.17;;
14474;SDS011;7323;50.848;4.334;2023-01-24T01:54:11;34.60;;;24.60;;
14474;SDS011;7323;50.848;4.334;2023-01-24T01:59:22;32.77;;;24.43;;
14474;SDS011;7323;50.848;4.334;2023-01-24T02:01:52;29.40;;;22.77;;
14474;SDS011;7323;50.848;4.334;2023-01-24T02:04:31;31.03;;;23.40;;
14474;SDS011;7323;50.848;4.334;2023-01-24T02:07:00;29.57;;;23.63;;
14474;SDS011;7323;50.848;4.334;2023-01-24T02:09:29;30.63;;;22.67;;
14474;SDS011;7323;50.848;4.334;2023-01-24T02:12:00;28.77;;;21.63;;
14474;SDS011;7323;50.848;4.334;2023-01-24T02:14:28;30.87;;;23.23;;
14474;SDS011;7323;50.848;4.334;2023-01-24T02:17:29;29.20;;;21.80;;
14474;SDS011;7323;50.848;4.334;2023-01-24T02:25:48;28.77;;;22.47;;
14474;SDS011;7323;50.848;4.334;2023-01-24T02:28:34;29.03;;;21.43;;
14474;SDS011;7323;50.848;4.334;2023-01-24T02:31:01;28.83;;;21.70;;
14474;SDS011;7323;50.848;4.334;2023-01-24T02:33:28;23.40;;;17.10;;
14474;SDS011;7323;50.848;4.334;2023-01-24T02:38:46;31.23;;;23.87;;
14474;SDS011;7323;50.848;4.334;2023-01-24T02:41:19;27.37;;;22.27;;
14474;SDS011;7323;50.848;4.334;2023-01-24T02:43:50;29.73;;;23.47;;
14474;SDS011;7323;50.848;4.334;2023-01-24T02:46:19;29.30;;;21.83;;
14474;SDS011;7323;50.848;4.334;2023-01-24T02:48:45;29.50;;;23.80;;
14474;SDS011;7323;50.848;4.334;2023-01-24T02:51:11;29.30;;;21.13;;
14474;SDS011;7323;50.848;4.334;2023-01-24T02:53:55;26.97;;;20.47;;
14474;SDS011;7323;50.848;4.334;2023-01-24T02:56:20;27.57;;;21.37;;
14474;SDS011;7323;50.848;4.334;2023-01-24T02:59:05;28.20;;;20.93;;
14474;SDS011;7323;50.848;4.334;2023-01-24T03:01:31;31.63;;;23.97;;
14474;SDS011;7323;50.848;4.334;2023-01-24T03:03:57;27.50;;;21.33;;
14474;SDS011;7323;50.848;4.334;2023-01-24T03:06:23;29.37;;;21.77;;
14474;SDS011;7323;50.848;4.334;2023-01-24T03:08:48;27.27;;;21.60;;
14474;SDS011;7323;50.848;4.334;2023-01-24T03:11:14;28.47;;;21.10;;
14474;SDS011;7323;50.848;4.334;2023-01-24T03:13:40;26.97;;;22.00;;
14474;SDS011;7323;50.848;4.334;2023-01-24T03:16:24;27.73;;;20.13;;
14474;SDS011;7323;50.848;4.334;2023-01-24T03:19:08;27.27;;;20.50;;
14474;SDS011;7323;50.848;4.334;2023-01-24T03:21:53;30.00;;;21.90;;
14474;SDS011;7323;50.848;4.334;2023-01-24T03:24:37;27.43;;;19.00;;
14474;SDS011;7323;50.848;4.334;2023-01-24T03:27:21;27.77;;;20.07;;
14474;SDS011;7323;50.848;4.334;2023-01-24T03:30:06;30.20;;;21.47;;
14474;SDS011;7323;50.848;4.334;2023-01-24T03:32:51;27.77;;;21.17;;
14474;SDS011;7323;50.848;4.334;2023-01-24T03:35:35;31.80;;;23.47;;
14474;SDS011;7323;50.848;4.334;2023-01-24T03:38:01;28.80;;;22.13;;
14474;SDS011;7323;50.848;4.334;2023-01-24T03:40:45;29.17;;;22.93;;
14474;SDS011;7323;50.848;4.334;2023-01-24T03:43:15;30.33;;;23.47;;
14474;SDS011;7323;50.848;4.334;2023-01-24T03:45:41;32.30;;;23.47;;
14474;SDS011;7323;50.848;4.334;2023-01-24T03:48:08;31.57;;;23.87;;
14474;SDS011;7323;50.848;4.334;2023-01-24T03:50:38;26.07;;;19.07;;
14474;SDS011;7323;50.848;4.334;2023-01-24T03:53:25;28.60;;;22.40;;
14474;SDS011;7323;50.848;4.334;2023-01-24T03:55:56;28.73;;;22.50;;
14474;SDS011;7323;50.848;4.334;2023-01-24T03:58:24;23.77;;;16.30;;
14474;SDS011;7323;50.848;4.334;2023-01-24T04:00:51;29.67;;;21.60;;
14474;SDS011;7323;50.848;4.334;2023-01-24T04:03:18;27.13;;;19.23;;
14474;SDS011;7323;50.848;4.334;2023-01-24T04:05:45;30.37;;;22.47;;
14474;SDS011;7323;50.848;4.334;2023-01-24T04:08:12;26.93;;;19.50;;
14474;SDS011;7323;50.848;4.334;2023-01-24T04:10:38;26.70;;;19.43;;
14474;SDS011;7323;50.848;4.334;2023-01-24T04:13:04;26.23;;;18.70;;
14474;SDS011;7323;50.848;4.334;2023-01-24T04:15:30;28.10;;;21.50;;
14474;SDS011;7323;50.848;4.334;2023-01-24T04:18:00;27.30;;;21.10;;
14474;SDS011;7323;50.848;4.334;2023-01-24T04:20:27;27.90;;;21.03;;
14474;SDS011;7323;50.848;4.334;2023-01-24T04:22:54;27.43;;;21.17;;
14474;SDS011;7323;50.848;4.334;2023-01-24T04:25:20;27.00;;;20.73;;
14474;SDS011;7323;50.848;4.334;2023-01-24T04:27:48;26.57;;;20.93;;
14474;SDS011;7323;50.848;4.334;2023-01-24T04:30:14;28.90;;;21.13;;
14474;SDS011;7323;50.848;4.334;2023-01-24T04:32:41;27.63;;;20.70;;
14474;SDS011;7323;50.848;4.334;2023-01-24T04:35:07;26.40;;;19.80;;
14474;SDS011;7323;50.848;4.334;2023-01-24T04:37:35;25.17;;;19.60;;
14474;SDS011;7323;50.848;4.334;2023-01-24T04:40:00;24.77;;;19.47;;
14474;SDS011;7323;50.848;4.334;2023-01-24T04:42:27;23.50;;;17.33;;
14474;SDS011;7323;50.848;4.334;2023-01-24T04:44:53;27.73;;;21.03;;
14474;SDS011;7323;50.848;4.334;2023-01-24T04:47:18;27.83;;;20.40;;
14474;SDS011;7323;50.848;4.334;2023-01-24T04:52:13;25.17;;;19.47;;
14474;SDS011;7323;50.848;4.334;2023-01-24T04:54:39;26.87;;;20.60;;
14474;SDS011;7323;50.848;4.334;2023-01-24T04:57:07;26.50;;;20.20;;
14474;SDS011;7323;50.848;4.334;2023-01-24T04:59:35;28.67;;;21.67;;
14474;SDS011;7323;50.848;4.334;2023-01-24T05:02:01;28.20;;;21.23;;
14474;SDS011;7323;50.848;4.334;2023-01-24T05:04:27;25.40;;;20.00;;
14474;SDS011;7323;50.848;4.334;2023-01-24T05:06:53;24.83;;;19.47;;
14474;SDS011;7323;50.848;4.334;2023-01-24T05:09:18;25.27;;;18.77;;
14474;SDS011;7323;50.848;4.334;2023-01-24T05:11:44;25.13;;;19.60;;
14474;SDS011;7323;50.848;4.334;2023-01-24T05:14:09;27.00;;;19.30;;
14474;SDS011;7323;50.848;4.334;2023-01-24T05:16:36;26.27;;;20.53;;
14474;SDS011;7323;50.848;4.334;2023-01-24T05:19:02;24.70;;;17.43;;
14474;SDS011;7323;50.848;4.334;2023-01-24T05:21:28;24.23;;;18.80;;
14474;SDS011;7323;50.848;4.334;2023-01-24T05:23:54;23.00;;;17.40;;
14474;SDS011;7323;50.848;4.334;2023-01-24T05:26:21;27.07;;;19.43;;
14474;SDS011;7323;50.848;4.334;2023-01-24T05:28:48;28.47;;;22.10;;
14474;SDS011;7323;50.848;4.334;2023-01-24T05:31:14;27.97;;;20.53;;
14474;SDS011;7323;50.848;4.334;2023-01-24T05:33:40;28.53;;;22.33;;
14474;SDS011;7323;50.848;4.334;2023-01-24T05:36:07;26.70;;;20.60;;
14474;SDS011;7323;50.848;4.334;2023-01-24T05:38:36;26.67;;;18.50;;
14474;SDS011;7323;50.848;4.334;2023-01-24T05:41:03;26.87;;;20.87;;
14474;SDS011;7323;50.848;4.334;2023-01-24T05:43:30;27.90;;;21.47;;
14474;SDS011;7323;50.848;4.334;2023-01-24T05:46:03;26.40;;;19.70;;
14474;SDS011;7323;50.848;4.334;2023-01-24T05:48:34;23.37;;;18.20;;
14474;SDS011;7323;50.848;4.334;2023-01-24T05:51:03;27.00;;;21.37;;
14474;SDS011;7323;50.848;4.334;2023-01-24T05:53:35;26.63;;;20.27;;
14474;SDS011;7323;50.848;4.334;2023-01-24T05:56:04;27.73;;;21.50;;
14474;SDS011;7323;50.848;4.334;2023-01-24T05:58:34;28.63;;;21.77;;
14474;SDS011;7323;50.848;4.334;2023-01-24T06:01:00;30.90;;;23.37;;
14474;SDS011;7323;50.848;4.334;2023-01-24T06:03:26;28.97;;;22.37;;
14474;SDS011;7323;50.848;4.334;2023-01-24T06:05:52;32.40;;;23.03;;
14474;SDS011;7323;50.848;4.334;2023-01-24T06:08:19;29.63;;;23.20;;
14474;SDS011;7323;50.848;4.334;2023-01-24T06:10:45;31.27;;;23.70;;
14474;SDS011;7323;50.848;4.334;2023-01-24T06:13:11;27.60;;;19.93;;
14474;SDS011;7323;50.848;4.334;2023-01-24T06:15:37;28.27;;;20.63;;
14474;SDS011;7323;50.848;4.334;2023-01-24T06:18:04;28.27;;;18.77;;
14474;SDS011;7323;50.848;4.334;2023-01-24T06:20:31;28.83;;;21.30;;
14474;SDS011;7323;50.848;4.334;2023-01-24T06:23:06;27.77;;;22.87;;
14474;SDS011;7323;50.848;4.334;2023-01-24T06:25:35;31.73;;;22.00;;
14474;SDS011;7323;50.848;4.334;2023-01-24T06:28:01;28.30;;;22.30;;
14474;SDS011;7323;50.848;4.334;2023-01-24T06:30:27;29.30;;;21.63;;
14474;SDS011;7323;50.848;4.334;2023-01-24T06:36:32;31.70;;;23.07;;
14474;SDS011;7323;50.848;4.334;2023-01-24T06:38:42;31.50;;;21.83;;
14474;SDS011;7323;50.848;4.334;2023-01-24T06:41:13;27.67;;;20.83;;
14474;SDS011;7323;50.848;4.334;2023-01-24T06:43:40;32.83;;;23.10;;
14474;SDS011;7323;50.848;4.334;2023-01-24T06:46:07;30.53;;;23.77;;
14474;SDS011;7323;50.848;4.334;2023-01-24T06:48:34;28.27;;;22.03;;
14474;SDS011;7323;50.848;4.334;2023-01-24T06:50:59;31.83;;;23.90;;
14474;SDS011;7323;50.848;4.334;2023-01-24T06:53:26;30.43;;;23.17;;
14474;SDS011;7323;50.848;4.334;2023-01-24T06:55:52;31.60;;;21.27;;
14474;SDS011;7323;50.848;4.334;2023-01-24T06:58:19;34.60;;;24.57;;
14474;SDS011;7323;50.848;4.334;2023-01-24T07:00:47;34.97;;;25.77;;
14474;SDS011;7323;50.848;4.334;2023-01-24T07:03:12;36.33;;;25.60;;
14474;SDS011;7323;50.848;4.334;2023-01-24T07:05:38;38.83;;;26.30;;
14474;SDS011;7323;50.848;4.334;2023-01-24T07:08:05;34.80;;;26.07;;
14474;SDS011;7323;50.848;4.334;2023-01-24T07:10:31;32.67;;;24.07;;
14474;SDS011;7323;50.848;4.334;2023-01-24T07:12:59;38.63;;;27.37;;
14474;SDS011;7323;50.848;4.334;2023-01-24T07:15:25;37.33;;;26.17;;
14474;SDS011;7323;50.848;4.334;2023-01-24T07:17:50;32.37;;;22.07;;
14474;SDS011;7323;50.848;4.334;2023-01-24T07:20:16;36.47;;;26.70;;
14474;SDS011;7323;50.848;4.334;2023-01-24T07:22:43;36.97;;;27.10;;
14474;SDS011;7323;50.848;4.334;2023-01-24T07:25:15;35.30;;;26.80;;
14474;SDS011;7323;50.848;4.334;2023-01-24T07:27:46;38.10;;;27.93;;
14474;SDS011;7323;50.848;4.334;2023-01-24T07:30:13;38.80;;;27.63;;
14474;SDS011;7323;50.848;4.334;2023-01-24T07:32:38;36.47;;;25.00;;
14474;SDS011;7323;50.848;4.334;2023-01-24T07:35:05;39.20;;;27.37;;
14474;SDS011;7323;50.848;4.334;2023-01-24T07:37:31;35.57;;;24.73;;
14474;SDS011;7323;50.848;4.334;2023-01-24T07:39:57;39.20;;;25.73;;
14474;SDS011;7323;50.848;4.334;2023-01-24T07:42:23;42.07;;;29.93;;
14474;SDS011;7323;50.848;4.334;2023-01-24T07:44:49;42.47;;;30.40;;
14474;SDS011;7323;50.848;4.334;2023-01-24T07:47:15;41.03;;;29.13;;
14474;SDS011;7323;50.848;4.334;2023-01-24T07:49:41;36.30;;;25.03;;
14474;SDS011;7323;50.848;4.334;2023-01-24T07:52:07;41.43;;;29.37;;
14474;SDS011;7323;50.848;4.334;2023-01-24T07:54:32;39.60;;;27.97;;
14474;SDS011;7323;50.848;4.334;2023-01-24T07:56:59;38.77;;;28.33;;
14474;SDS011;7323;50.848;4.334;2023-01-24T07:59:25;39.50;;;28.37;;
14474;SDS011;7323;50.848;4.334;2023-01-24T08:01:51;37.10;;;26.77;;
14474;SDS011;7323;50.848;4.334;2023-01-24T08:04:17;43.07;;;30.03;;
14474;SDS011;7323;50.848;4.334;2023-01-24T08:06:43;41.90;;;28.23;;
14474;SDS011;7323;50.848;4.334;2023-01-24T08:09:30;40.57;;;27.20;;
14474;SDS011;7323;50.848;4.334;2023-01-24T08:11:56;43.63;;;29.53;;
14474;SDS011;7323;50.848;4.334;2023-01-24T08:14:21;44.87;;;30.10;;
14474;SDS011;7323;50.848;4.334;2023-01-24T08:16:50;41.00;;;30.83;;
14474;SDS011;7323;50.848;4.334;2023-01-24T08:19:16;41.60;;;29.87;;
14474;SDS011;7323;50.848;4.334;2023-01-24T08:21:42;39.07;;;27.80;;
14474;SDS011;7323;50.848;4.334;2023-01-24T08:24:08;42.13;;;28.53;;
14474;SDS011;7323;50.848;4.334;2023-01-24T08:26:34;40.43;;;27.73;;
14474;SDS011;7323;50.848;4.334;2023-01-24T08:29:12;37.53;;;25.50;;
14474;SDS011;7323;50.848;4.334;2023-01-24T08:31:39;41.50;;;27.20;;
14474;SDS011;7323;50.848;4.334;2023-01-24T08:36:52;38.63;;;28.43;;
14474;SDS011;7323;50.848;4.334;2023-01-24T08:39:19;44.70;;;32.97;;
14474;SDS011;7323;50.848;4.334;2023-01-24T08:41:45;42.63;;;31.83;;
14474;SDS011;7323;50.848;4.334;2023-01-24T08:44:12;42.37;;;30.97;;
14474;SDS011;7323;50.848;4.334;2023-01-24T08:46:38;44.83;;;31.20;;
14474;SDS011;7323;50.848;4.334;2023-01-24T08:49:05;44.13;;;32.27;;
14474;SDS011;7323;50.848;4.334;2023-01-24T08:51:31;41.67;;;31.07;;
14474;SDS011;7323;50.848;4.334;2023-01-24T08:53:56;37.30;;;27.33;;
14474;SDS011;7323;50.848;4.334;2023-01-24T08:56:22;39.97;;;30.63;;
14474;SDS011;7323;50.848;4.334;2023-01-24T08:58:49;40.13;;;28.63;;
14474;SDS011;7323;50.848;4.334;2023-01-24T09:01:15;39.27;;;29.47;;
14474;SDS011;7323;50.848;4.334;2023-01-24T09:03:40;40.43;;;28.57;;
14474;SDS011;7323;50.848;4.334;2023-01-24T09:06:06;41.00;;;29.17;;
14474;SDS011;7323;50.848;4.334;2023-01-24T09:08:32;38.47;;;27.60;;
14474;SDS011;7323;50.848;4.334;2023-01-24T09:10:58;42.63;;;31.80;;
14474;SDS011;7323;50.848;4.334;2023-01-24T09:13:24;43.20;;;30.93;;
14474;SDS011;7323;50.848;4.334;2023-01-24T09:15:50;41.80;;;32.87;;
14474;SDS011;7323;50.848;4.334;2023-01-24T09:18:18;45.90;;;33.40;;
14474;SDS011;7323;50.848;4.334;2023-01-24T09:20:44;43.90;;;31.27;;
14474;SDS011;7323;50.848;4.334;2023-01-24T09:23:11;42.53;;;32.93;;
14474;SDS011;7323;50.848;4.334;2023-01-24T09:25:40;45.07;;;33.03;;
14474;SDS011;7323;50.848;4.334;2023-01-24T09:28:06;42.33;;;33.10;;
14474;SDS011;7323;50.848;4.334;2023-01-24T09:30:33;45.87;;;34.47;;
14474;SDS011;7323;50.848;4.334;2023-01-24T09:33:04;40.10;;;29.50;;
14474;SDS011;7323;50.848;4.334;2023-01-24T09:35:30;40.23;;;30.93;;
14474;SDS011;7323;50.848;4.334;2023-01-24T09:37:56;40.43;;;31.23;;
14474;SDS011;7323;50.848;4.334;2023-01-24T09:46:15;36.93;;;25.97;;
14474;SDS011;7323;50.848;4.334;2023-01-24T09:51:57;35.53;;;25.87;;
14474;SDS011;7323;50.848;4.334;2023-01-24T09:57:11;34.47;;;26.50;;
14474;SDS011;7323;50.848;4.334;2023-01-24T09:59:58;35.77;;;26.57;;
14474;SDS011;7323;50.848;4.334;2023-01-24T10:02:54;33.47;;;26.17;;
14474;SDS011;7323;50.848;4.334;2023-01-24T10:05:23;35.97;;;27.47;;
14474;SDS011;7323;50.848;4.334;2023-01-24T10:08:03;33.33;;;26.23;;
14474;SDS011;7323;50.848;4.334;2023-01-24T10:10:42;31.73;;;25.07;;
14474;SDS011;7323;50.848;4.334;2023-01-24T10:16:55;31.13;;;23.70;;
14474;SDS011;7323;50.848;4.334;2023-01-24T10:25:07;30.87;;;24.93;;
14474;SDS011;7323;50.848;4.334;2023-01-24T10:28:00;33.10;;;26.03;;
14474;SDS011;7323;50.848;4.334;2023-01-24T10:33:14;33.27;;;26.67;;
14474;SDS011;7323;50.848;4.334;2023-01-24T10:38:17;34.00;;;27.87;;
14474;SDS011;7323;50.848;4.334;2023-01-24T10:40:50;35.47;;;28.07;;
14474;SDS011;7323;50.848;4.334;2023-01-24T10:43:20;32.27;;;25.57;;
14474;SDS011;7323;50.848;4.334;2023-01-24T10:51:11;33.47;;;24.63;;
14474;SDS011;7323;50.848;4.334;2023-01-24T10:53:39;34.80;;;25.83;;
14474;SDS011;7323;50.848;4.334;2023-01-24T10:56:05;39.00;;;27.27;;
14474;SDS011;7323;50.848;4.334;2023-01-24T10:58:42;32.90;;;24.97;;
14474;SDS011;7323;50.848;4.334;2023-01-24T11:03:46;31.70;;;25.63;;
14474;SDS011;7323;50.848;4.334;2023-01-24T11:09:17;29.73;;;23.13;;
14474;SDS011;7323;50.848;4.334;2023-01-24T11:11:51;30.27;;;24.10;;
14474;SDS011;7323;50.848;4.334;2023-01-24T11:14:20;31.53;;;22.97;;
14474;SDS011;7323;50.848;4.334;2023-01-24T11:16:49;31.53;;;25.20;;
14474;SDS011;7323;50.848;4.334;2023-01-24T11:22:20;26.13;;;19.90;;
14474;SDS011;7323;50.848;4.334;2023-01-24T11:24:47;26.77;;;20.13;;
14474;SDS011;7323;50.848;4.334;2023-01-24T11:27:15;29.73;;;21.70;;
14474;SDS011;7323;50.848;4.334;2023-01-24T11:29:42;29.80;;;23.77;;
14474;SDS011;7323;50.848;4.334;2023-01-24T11:40:19;33.33;;;25.53;;
14474;SDS011;7323;50.848;4.334;2023-01-24T11:42:51;31.33;;;23.67;;
14474;SDS011;7323;50.848;4.334;2023-01-24T11:45:44;30.43;;;23.97;;
14474;SDS011;7323;50.848;4.334;2023-01-24T11:48:21;30.60;;;23.00;;
14474;SDS011;7323;50.848;4.334;2023-01-24T11:56:21;32.13;;;23.73;;
14474;SDS011;7323;50.848;4.334;2023-01-24T12:09:49;33.57;;;25.77;;
14474;SDS011;7323;50.848;4.334;2023-01-24T12:12:37;31.67;;;25.43;;
14474;SDS011;7323;50.848;4.334;2023-01-24T12:15:13;34.73;;;25.87;;
14474;SDS011;7323;50.848;4.334;2023-01-24T12:23:28;36.67;;;28.50;;
14474;SDS011;7323;50.848;4.334;2023-01-24T12:26:03;37.70;;;29.13;;
14474;SDS011;7323;50.848;4.334;2023-01-24T12:29:08;38.00;;;26.17;;
14474;SDS011;7323;50.848;4.334;2023-01-24T12:34:53;41.77;;;29.83;;
14474;SDS011;7323;50.848;4.334;2023-01-24T12:37:28;36.87;;;27.03;;
14474;SDS011;7323;50.848;4.334;2023-01-24T12:45:50;34.83;;;23.17;;
14474;SDS011;7323;50.848;4.334;2023-01-24T12:48:26;35.83;;;26.30;;
14474;SDS011;7323;50.848;4.334;2023-01-24T12:51:04;41.53;;;28.83;;
14474;SDS011;7323;50.848;4.334;2023-01-24T12:53:55;40.30;;;30.10;;
14474;SDS011;7323;50.848;4.334;2023-01-24T12:56:45;37.63;;;26.93;;
14474;SDS011;7323;50.848;4.334;2023-01-24T12:59:13;39.53;;;27.13;;
14474;SDS011;7323;50.848;4.334;2023-01-24T13:04:49;40.83;;;30.17;;
14474;SDS011;7323;50.848;4.334;2023-01-24T13:08:16;38.83;;;30.50;;
14474;SDS011;7323;50.848;4.334;2023-01-24T13:11:17;39.03;;;30.67;;
14474;SDS011;7323;50.848;4.334;2023-01-24T13:13:55;36.10;;;27.27;;
14474;SDS011;7323;50.848;4.334;2023-01-24T13:22:31;38.93;;;28.57;;
14474;SDS011;7323;50.848;4.334;2023-01-24T13:25:30;39.03;;;28.07;;
14474;SDS011;7323;50.848;4.334;2023-01-24T13:33:50;37.50;;;27.50;;
14474;SDS011;7323;50.848;4.334;2023-01-24T13:36:25;39.20;;;29.20;;
14474;SDS011;7323;50.848;4.334;2023-01-24T13:39:21;39.70;;;29.30;;
14474;SDS011;7323;50.848;4.334;2023-01-24T13:44:44;39.20;;;29.47;;
14474;SDS011;7323;50.848;4.334;2023-01-24T14:00:35;43.23;;;31.63;;
14474;SDS011;7323;50.848;4.334;2023-01-24T14:08:47;44.40;;;32.83;;
14474;SDS011;7323;50.848;4.334;2023-01-24T14:11:18;40.10;;;30.50;;
14474;SDS011;7323;50.848;4.334;2023-01-24T14:19:12;42.03;;;30.63;;
14474;SDS011;7323;50.848;4.334;2023-01-24T14:21:56;40.53;;;29.50;;
14474;SDS011;7323;50.848;4.334;2023-01-24T14:24:54;38.00;;;27.60;;
14474;SDS011;7323;50.848;4.334;2023-01-24T14:27:26;36.73;;;29.40;;
14474;SDS011;7323;50.848;4.334;2023-01-24T14:29:59;35.17;;;26.67;;
14474;SDS011;7323;50.848;4.334;2023-01-24T14:32:39;40.30;;;30.20;;
14474;SDS011;7323;50.848;4.334;2023-01-24T14:35:23;35.93;;;26.83;;
14474;SDS011;7323;50.848;4.334;2023-01-24T14:38:15;35.67;;;27.33;;
14474;SDS011;7323;50.848;4.334;2023-01-24T14:40:49;32.60;;;26.50;;
14474;SDS011;7323;50.848;4.334;2023-01-24T14:43:17;34.90;;;23.47;;
14474;SDS011;7323;50.848;4.334;2023-01-24T14:45:46;36.33;;;28.00;;
14474;SDS011;7323;50.848;4.334;2023-01-24T14:48:16;38.20;;;26.90;;
14474;SDS011;7323;50.848;4.334;2023-01-24T14:50:58;39.07;;;29.07;;
14474;SDS011;7323;50.848;4.334;2023-01-24T14:53:31;36.67;;;28.87;;
14474;SDS011;7323;50.848;4.334;2023-01-24T14:56:16;37.77;;;27.17;;
14474;SDS011;7323;50.848;4.334;2023-01-24T14:58:46;36.73;;;28.57;;
14474;SDS011;7323;50.848;4.334;2023-01-24T15:01:23;35.97;;;27.57;;
14474;SDS011;7323;50.848;4.334;2023-01-24T15:03:52;37.00;;;28.47;;
14474;SDS011;7323;50.848;4.334;2023-01-24T15:06:20;32.80;;;25.87;;
14474;SDS011;7323;50.848;4.334;2023-01-24T15:08:48;30.97;;;23.37;;
14474;SDS011;7323;50.848;4.334;2023-01-24T15:11:28;32.93;;;23.80;;
14474;SDS011;7323;50.848;4.334;2023-01-24T15:14:04;32.17;;;26.53;;
14474;SDS011;7323;50.848;4.334;2023-01-24T15:17:02;34.73;;;27.40;;
14474;SDS011;7323;50.848;4.334;2023-01-24T15:19:29;32.30;;;25.30;;
14474;SDS011;7323;50.848;4.334;2023-01-24T15:21:57;33.97;;;24.90;;
14474;SDS011;7323;50.848;4.334;2023-01-24T15:24:27;34.20;;;26.97;;
14474;SDS011;7323;50.848;4.334;2023-01-24T15:26:56;30.93;;;25.00;;
14474;SDS011;7323;50.848;4.334;2023-01-24T15:29:35;31.73;;;26.90;;
14474;SDS011;7323;50.848;4.334;2023-01-24T15:32:18;38.57;;;29.27;;
14474;SDS011;7323;50.848;4.334;2023-01-24T15:37:58;34.07;;;26.97;;
14474;SDS011;7323;50.848;4.334;2023-01-24T15:40:48;33.07;;;26.03;;
14474;SDS011;7323;50.848;4.334;2023-01-24T15:43:19;30.83;;;26.47;;
14474;SDS011;7323;50.848;4.334;2023-01-24T15:46:14;33.60;;;27.23;;
14474;SDS011;7323;50.848;4.334;2023-01-24T15:49:15;35.70;;;27.33;;
14474;SDS011;7323;50.848;4.334;2023-01-24T15:51:41;34.87;;;26.27;;
14474;SDS011;7323;50.848;4.334;2023-01-24T15:54:12;33.60;;;26.17;;
14474;SDS011;7323;50.848;4.334;2023-01-24T15:56:38;34.83;;;26.40;;
14474;SDS011;7323;50.848;4.334;2023-01-24T15:59:15;34.57;;;28.23;;
14474;SDS011;7323;50.848;4.334;2023-01-24T16:01:45;32.50;;;27.17;;
14474;SDS011;7323;50.848;4.334;2023-01-24T16:04:11;30.97;;;25.83;;
14474;SDS011;7323;50.848;4.334;2023-01-24T16:06:41;33.53;;;27.10;;
14474;SDS011;7323;50.848;4.334;2023-01-24T16:09:12;33.53;;;27.27;;
14474;SDS011;7323;50.848;4.334;2023-01-24T16:11:39;30.80;;;24.27;;
14474;SDS011;7323;50.848;4.334;2023-01-24T16:14:07;34.90;;;27.97;;
14474;SDS011;7323;50.848;4.334;2023-01-24T16:16:38;32.93;;;26.43;;
14474;SDS011;7323;50.848;4.334;2023-01-24T16:19:18;32.43;;;27.33;;
14474;SDS011;7323;50.848;4.334;2023-01-24T16:21:47;34.77;;;27.17;;
14474;SDS011;7323;50.848;4.334;2023-01-24T16:24:14;35.23;;;27.67;;
14474;SDS011;7323;50.848;4.334;2023-01-24T16:26:41;32.63;;;25.53;;
14474;SDS011;7323;50.848;4.334;2023-01-24T16:29:18;31.80;;;26.07;;
14474;SDS011;7323;50.848;4.334;2023-01-24T16:31:47;34.77;;;25.30;;
14474;SDS011;7323;50.848;4.334;2023-01-24T16:34:13;32.97;;;27.30;;
14474;SDS011;7323;50.848;4.334;2023-01-24T16:36:39;32.17;;;25.03;;
14474;SDS011;7323;50.848;4.334;2023-01-24T16:39:05;31.27;;;25.10;;
14474;SDS011;7323;50.848;4.334;2023-01-24T16:41:31;33.20;;;26.00;;
14474;SDS011;7323;50.848;4.334;2023-01-24T16:43:57;34.50;;;27.20;;
14474;SDS011;7323;50.848;4.334;2023-01-24T16:46:23;33.40;;;25.33;;
14474;SDS011;7323;50.848;4.334;2023-01-24T16:48:50;33.30;;;26.23;;
14474;SDS011;7323;50.848;4.334;2023-01-24T16:51:17;31.37;;;25.70;;
14474;SDS011;7323;50.848;4.334;2023-01-24T16:53:44;30.00;;;24.37;;
14474;SDS011;7323;50.848;4.334;2023-01-24T16:56:10;30.23;;;24.20;;
14474;SDS011;7323;50.848;4.334;2023-01-24T16:58:36;26.03;;;21.90;;
14474;SDS011;7323;50.848;4.334;2023-01-24T17:01:08;28.07;;;23.57;;
14474;SDS011;7323;50.848;4.334;2023-01-24T17:03:35;28.10;;;22.73;;
14474;SDS011;7323;50.848;4.334;2023-01-24T17:06:04;29.73;;;21.93;;
14474;SDS011;7323;50.848;4.334;2023-01-24T17:08:31;28.80;;;22.40;;
14474;SDS011;7323;50.848;4.334;2023-01-24T17:11:04;30.43;;;21.93;;
14474;SDS011;7323;50.848;4.334;2023-01-24T17:13:32;29.63;;;23.93;;
14474;SDS011;7323;50.848;4.334;2023-01-24T17:16:08;30.10;;;24.03;;
14474;SDS011;7323;50.848;4.334;2023-01-24T17:18:35;31.00;;;25.17;;
14474;SDS011;7323;50.848;4.334;2023-01-24T17:21:02;30.57;;;24.97;;